Weather at El Cenizo Airport

Public forecast

Using degrees Celsius for public forecast. Weather courtesy of forecast.io.

Closest aviation weather report (METAR) to El Cenizo Airport

Closest report is Ignacio Agramonte International Airport, 34.7 nm (64.2 km) ENE. Retrieved 2021/06/12 16:50 UTC (18 minutes ago):

MUCM 121650Z 12003KT 080V150 9000 BKN020 29/23 Q1015

Closest aviation forecast (TAF) to El Cenizo Airport

Closest forecast is Ignacio Agramonte International Airport, 34.7 nm (64.2 km) ENE. Retrieved 2021/06/12 12:03 UTC (5 hours ago):

TAF MUCM 121100Z 1212/1312 VRB03KT 9000 SCT018 TEMPO 1212/1214 3000 BR FEW060 TEMPO 1218/1224 VRB10KT 4000 TSRA SCT018CB BKN020